KPOF

Poplar Bluff Municipal Airport

Poplar Bluff, Missouri, USA
METAR KPOF 200053Z AUTO 19006KT 10SM CLR 01/M03 A3009 RMK AO2 SLP196 T00111028
Observed Flight Rules
Jan-20 @ 00:53 UTC (32 minutes ago) Visual Flight Rules
Wind Visibility Clouds
190° at 6 knots 10 miles
  • Clear skies
Temperatures Readings
Current 1°C / 34°F
Dewpoint -3°C / 27°F
Humidity 75%
Altimeter 30.09" Hg
Pressure 1019.6 hPa
Elevation 99
METAR KPOF 200053Z AUTO 19006KT 10SM CLR 01/M03 A3009 RMK AO2 SLP196 T00111028
Observed Flight Rules
Jan-20 @ 00:53 UTC
(32 minutes ago)
VFR
Wind Visibility
190° at 6 knots 10 miles
Clouds
  • Clear skies
Temperature Dewpoint
1°C / 34°F -3°C / 27°F
Humidity Altimeter Pressure
75% 30.09" Hg 1019.6 hPa